createdAt,value
2018-07-15T00:01:47.405Z,8.13
2018-07-15T00:04:15.935Z,9.08
2018-07-15T00:06:44.502Z,10.48
2018-07-15T00:09:13.089Z,9.38
2018-07-15T00:11:41.745Z,8.98
2018-07-15T00:14:10.265Z,8.13
2018-07-15T00:16:39.849Z,7.85
2018-07-15T00:19:08.727Z,9.00
2018-07-15T00:21:37.313Z,8.03
2018-07-15T00:24:05.987Z,8.43
2018-07-15T00:26:34.624Z,7.95
2018-07-15T00:29:02.874Z,7.87
2018-07-15T00:31:31.759Z,8.58
2018-07-15T00:34:00.286Z,8.95
2018-07-15T00:36:28.936Z,9.33
2018-07-15T00:38:57.664Z,7.70
2018-07-15T00:41:26.434Z,8.58
2018-07-15T00:43:55.117Z,8.80
2018-07-15T00:46:23.760Z,7.90
2018-07-15T00:48:52.344Z,8.95
2018-07-15T00:51:21.058Z,9.80
2018-07-15T00:53:49.738Z,8.30
2018-07-15T00:56:18.410Z,7.87
2018-07-15T00:58:47.300Z,9.23
2018-07-15T01:01:15.527Z,8.45
2018-07-15T01:03:44.329Z,8.90
2018-07-15T01:06:12.885Z,7.42
2018-07-15T01:08:41.417Z,8.53
2018-07-15T01:11:09.932Z,8.45
2018-07-15T01:13:39.861Z,8.15
2018-07-15T01:16:08.424Z,9.15
2018-07-15T01:18:37.056Z,7.53
2018-07-15T01:21:05.773Z,8.53
2018-07-15T01:23:34.357Z,8.75
2018-07-15T01:26:02.941Z,8.98
2018-07-15T01:28:31.506Z,8.45
2018-07-15T01:31:00.313Z,8.85
2018-07-15T01:33:28.901Z,9.68
2018-07-15T01:35:57.427Z,9.95
2018-07-15T01:38:26.553Z,8.58
2018-07-15T01:40:55.530Z,9.30
2018-07-15T01:43:24.772Z,9.30
2018-07-15T01:45:53.752Z,10.13
2018-07-15T01:48:22.310Z,9.25
2018-07-15T01:50:51.106Z,8.73
2018-07-15T01:53:20.137Z,10.88
2018-07-15T01:55:49.012Z,10.20
2018-07-15T01:58:17.976Z,8.95
2018-07-15T02:00:46.548Z,9.43
2018-07-15T02:03:15.334Z,9.53
2018-07-15T02:05:43.895Z,8.80
2018-07-15T02:08:12.435Z,9.30
2018-07-15T02:10:41.245Z,10.85
2018-07-15T02:13:10.220Z,9.35
2018-07-15T02:15:40.054Z,10.20
2018-07-15T02:18:08.655Z,8.63
2018-07-15T02:20:37.371Z,9.08
2018-07-15T02:23:05.965Z,8.90
2018-07-15T02:25:34.563Z,8.95
2018-07-15T02:28:03.451Z,10.00
2018-07-15T02:30:32.051Z,9.23
2018-07-15T02:33:00.828Z,8.08
2018-07-15T02:35:29.426Z,9.15
2018-07-15T02:37:58.007Z,9.33
2018-07-15T02:40:26.681Z,8.50
2018-07-15T02:42:55.851Z,8.63
2018-07-15T02:45:24.454Z,8.53
2018-07-15T02:47:53.078Z,10.23
2018-07-15T02:50:21.659Z,9.15
2018-07-15T02:52:50.463Z,8.10
2018-07-15T02:55:19.377Z,9.20
2018-07-15T02:57:48.023Z,10.90
2018-07-15T03:00:16.748Z,9.90
2018-07-15T03:02:45.378Z,9.05
2018-07-15T03:05:14.053Z,9.23
2018-07-15T03:07:42.650Z,9.73
2018-07-15T03:10:11.169Z,9.08
2018-07-15T03:12:39.988Z,8.40
2018-07-15T03:15:08.699Z,12.05
2018-07-15T03:17:37.055Z,10.23
2018-07-15T03:20:05.616Z,9.18
2018-07-15T03:22:34.129Z,11.83
2018-07-15T03:25:02.689Z,11.53
2018-07-15T03:27:31.315Z,10.58
2018-07-15T03:29:59.793Z,10.85
2018-07-15T03:32:28.325Z,12.47
2018-07-15T03:34:56.849Z,12.13
2018-07-15T03:37:25.429Z,9.68
2018-07-15T03:39:54.098Z,10.23
2018-07-15T03:42:23.044Z,10.15
2018-07-15T03:44:51.746Z,12.03
2018-07-15T03:47:20.280Z,11.00
2018-07-15T03:49:48.874Z,9.70
2018-07-15T03:52:17.910Z,9.78
2018-07-15T03:54:46.538Z,9.50
2018-07-15T03:57:15.035Z,9.73
2018-07-15T03:59:44.042Z,10.50
2018-07-15T04:02:12.235Z,10.53
2018-07-15T04:04:40.986Z,10.38
2018-07-15T04:07:09.562Z,11.48
2018-07-15T04:09:38.592Z,10.88
2018-07-15T04:12:07.307Z,11.73
2018-07-15T04:14:35.891Z,11.40
2018-07-15T04:17:04.468Z,13.70
2018-07-15T04:19:33.622Z,11.20
2018-07-15T04:22:02.216Z,11.10
2018-07-15T04:24:30.917Z,10.80
2018-07-15T04:26:59.513Z,11.90
2018-07-15T04:29:28.091Z,10.93
2018-07-15T04:31:56.661Z,11.65
2018-07-15T04:34:25.268Z,10.82
2018-07-15T04:36:54.269Z,10.68
2018-07-15T04:39:22.904Z,11.68
2018-07-15T04:41:51.512Z,10.68
2018-07-15T04:44:20.173Z,10.88
2018-07-15T04:46:49.670Z,11.73
2018-07-15T04:49:18.326Z,11.50
2018-07-15T04:51:46.934Z,10.55
2018-07-15T04:54:15.510Z,12.68
2018-07-15T04:56:44.673Z,10.53
2018-07-15T04:59:13.229Z,11.88
2018-07-15T05:01:43.556Z,11.35
2018-07-15T05:04:13.767Z,9.85
2018-07-15T05:06:42.856Z,10.18
2018-07-15T05:09:11.409Z,10.05
2018-07-15T05:11:40.156Z,10.15
2018-07-15T05:14:08.964Z,9.78
2018-07-15T05:16:38.215Z,10.13
2018-07-15T05:19:06.953Z,10.45
2018-07-15T05:21:35.559Z,9.93
2018-07-15T05:24:04.215Z,9.63
2018-07-15T05:26:33.184Z,9.35
2018-07-15T05:29:01.841Z,9.48
2018-07-15T05:31:30.409Z,9.68
2018-07-15T05:33:58.957Z,9.45
2018-07-15T05:36:27.651Z,10.00
2018-07-15T05:38:56.422Z,8.65
2018-07-15T05:41:25.090Z,12.78
2018-07-15T05:43:54.388Z,8.65
2018-07-15T05:46:22.974Z,9.23
2018-07-15T05:48:51.610Z,10.40
2018-07-15T05:51:20.239Z,9.60
2018-07-15T05:53:48.850Z,8.05
2018-07-15T05:56:17.882Z,7.95
2018-07-15T05:58:46.396Z,6.83
2018-07-15T06:01:15.195Z,7.20
2018-07-15T06:03:43.737Z,8.00
2018-07-15T06:06:12.221Z,9.00
2018-07-15T06:08:41.770Z,7.87
2018-07-15T06:11:10.446Z,6.37
2018-07-15T06:13:40.168Z,6.97
2018-07-15T06:16:08.964Z,8.55
2018-07-15T06:18:37.711Z,7.40
2018-07-15T06:21:06.337Z,9.28
2018-07-15T06:23:34.938Z,6.75
2018-07-15T06:26:03.567Z,6.80
2018-07-15T06:28:32.136Z,7.45
2018-07-15T06:31:00.919Z,7.20
2018-07-15T06:33:29.561Z,8.20
2018-07-15T06:35:58.197Z,7.10
2018-07-15T06:38:26.782Z,7.03
2018-07-15T06:40:55.616Z,6.20
2018-07-15T06:43:24.161Z,7.60
2018-07-15T06:45:52.807Z,6.75
2018-07-15T06:48:21.924Z,7.08
2018-07-15T06:50:50.533Z,6.87
2018-07-15T06:53:19.518Z,6.33
2018-07-15T06:55:48.239Z,6.58
2018-07-15T06:58:16.757Z,8.93
2018-07-15T07:00:45.667Z,5.95
2018-07-15T07:03:14.263Z,6.95
2018-07-15T07:05:42.876Z,7.17
2018-07-15T07:08:11.652Z,5.70
2018-07-15T07:10:41.371Z,7.22
2018-07-15T07:13:10.069Z,5.90
2018-07-15T07:15:40.308Z,7.35
2018-07-15T07:18:11.414Z,6.55
2018-07-15T07:20:40.286Z,5.58
2018-07-15T07:23:08.965Z,6.33
2018-07-15T07:25:37.791Z,8.55
2018-07-15T07:28:06.705Z,6.10
2018-07-15T07:30:35.302Z,5.60
2018-07-15T07:33:04.369Z,5.95
2018-07-15T07:35:33.247Z,5.85
2018-07-15T07:38:01.835Z,7.35
2018-07-15T07:40:30.902Z,5.72
2018-07-15T07:43:00.611Z,5.95
2018-07-15T07:45:29.409Z,5.83
2018-07-15T07:47:59.225Z,6.05
2018-07-15T07:50:27.828Z,7.30
2018-07-15T07:52:56.330Z,6.60
2018-07-15T07:55:24.962Z,5.60
2018-07-15T07:57:53.473Z,5.65
2018-07-15T08:00:21.685Z,6.87
2018-07-15T08:02:55.510Z,6.17
2018-07-15T08:05:25.796Z,5.40
2018-07-15T08:07:54.323Z,6.78
2018-07-15T08:10:22.945Z,7.17
2018-07-15T08:12:52.081Z,6.70
2018-07-15T08:15:20.766Z,8.03
2018-07-15T08:17:49.393Z,5.75
2018-07-15T08:20:18.483Z,5.58
2018-07-15T08:22:47.367Z,6.20
2018-07-15T08:25:15.944Z,6.65
2018-07-15T08:27:44.953Z,7.22
2018-07-15T08:30:24.730Z,6.17
2018-07-15T08:32:53.704Z,6.60
2018-07-15T08:35:21.905Z,6.83
2018-07-15T08:37:50.479Z,6.45
2018-07-15T08:40:19.272Z,8.60
2018-07-15T08:42:47.831Z,5.87
2018-07-15T08:45:16.695Z,6.20
2018-07-15T08:47:45.463Z,5.25
2018-07-15T08:50:19.050Z,7.90
2018-07-15T08:52:47.839Z,7.05
2018-07-15T08:55:16.667Z,6.03
2018-07-15T08:57:45.644Z,5.42
2018-07-15T09:00:14.353Z,5.70
2018-07-15T09:02:42.953Z,5.05
2018-07-15T09:05:11.608Z,6.30
2018-07-15T09:07:41.359Z,5.25
2018-07-15T09:10:10.001Z,4.67
2018-07-15T09:12:39.116Z,7.60
2018-07-15T09:15:07.892Z,7.08
2018-07-15T09:17:36.468Z,6.58
2018-07-15T09:20:05.182Z,5.50
2018-07-15T09:22:34.164Z,4.92
2018-07-15T09:25:02.726Z,4.75
2018-07-15T09:27:31.922Z,6.47
2018-07-15T09:30:00.728Z,4.30
2018-07-15T09:32:29.262Z,6.60
2018-07-15T09:34:57.960Z,5.03
2018-07-15T09:37:26.720Z,4.20
2018-07-15T09:39:55.287Z,3.65
2018-07-15T09:42:24.328Z,3.72
2018-07-15T09:44:52.874Z,3.92
2018-07-15T09:47:21.524Z,4.78
2018-07-15T09:49:50.300Z,3.90
2018-07-15T09:52:18.880Z,4.08
2018-07-15T09:54:48.943Z,3.85
2018-07-15T09:57:17.513Z,4.28
2018-07-15T09:59:46.104Z,3.40
2018-07-15T10:02:14.819Z,3.83
2018-07-15T10:04:43.591Z,3.95
2018-07-15T10:07:12.649Z,4.92
2018-07-15T10:09:41.349Z,3.87
2018-07-15T10:12:09.876Z,5.22
2018-07-15T10:14:38.826Z,3.58
2018-07-15T10:17:07.493Z,5.45
2018-07-15T10:19:36.067Z,4.28
2018-07-15T10:22:04.702Z,3.30
2018-07-15T10:24:33.363Z,3.83
2018-07-15T10:27:01.916Z,4.75
2018-07-15T10:29:30.429Z,3.02
2018-07-15T10:31:58.951Z,3.92
2018-07-15T10:34:27.202Z,4.15
2018-07-15T10:36:55.801Z,3.20
2018-07-15T10:39:25.514Z,3.83
2018-07-15T10:41:54.454Z,3.12
2018-07-15T10:44:22.945Z,3.77
2018-07-15T10:46:51.501Z,3.25
2018-07-15T10:49:20.126Z,3.25
2018-07-15T10:51:48.905Z,3.25
2018-07-15T10:54:17.679Z,3.05
2018-07-15T10:56:48.468Z,3.20
2018-07-15T10:59:17.690Z,3.27
2018-07-15T11:01:47.304Z,2.90
2018-07-15T11:04:16.943Z,2.70
2018-07-15T11:06:48.190Z,4.87
2018-07-15T11:09:16.753Z,2.92
2018-07-15T11:11:45.557Z,3.60
2018-07-15T11:14:14.094Z,4.75
2018-07-15T11:16:42.618Z,2.58
2018-07-15T11:19:11.176Z,2.20
2018-07-15T11:21:40.059Z,2.62
2018-07-15T11:24:09.048Z,4.75
2018-07-15T11:26:37.737Z,2.83
2018-07-15T11:29:06.300Z,3.67
2018-07-15T11:31:34.817Z,2.30
2018-07-15T11:34:03.550Z,3.65
2018-07-15T11:36:32.059Z,2.30
2018-07-15T11:39:00.704Z,2.92
2018-07-15T11:41:29.243Z,2.55
2018-07-15T11:43:57.800Z,2.58
2018-07-15T11:46:26.348Z,2.40
2018-07-15T11:48:54.903Z,2.40
2018-07-15T11:51:23.642Z,2.30
2018-07-15T11:53:54.371Z,2.60
2018-07-15T11:56:23.133Z,2.35
2018-07-15T11:58:51.895Z,2.22
2018-07-15T12:01:20.434Z,2.25
2018-07-15T12:03:49.014Z,2.33
2018-07-15T12:06:17.587Z,2.25
2018-07-15T12:08:46.397Z,1.65
2018-07-15T12:11:15.918Z,1.98
2018-07-15T12:13:45.080Z,2.55
2018-07-15T12:16:13.781Z,2.15
2018-07-15T12:18:42.610Z,1.82
2018-07-15T12:21:11.555Z,2.10
2018-07-15T12:23:40.356Z,2.08
2018-07-15T12:26:08.960Z,2.17
2018-07-15T12:28:39.242Z,2.20
2018-07-15T12:31:07.488Z,2.25
2018-07-15T12:33:36.042Z,2.27
2018-07-15T12:36:04.917Z,2.77
2018-07-15T12:38:33.391Z,4.42
2018-07-15T12:41:02.023Z,1.70
2018-07-15T12:43:30.600Z,1.80
2018-07-15T12:45:59.232Z,1.77
2018-07-15T12:48:27.894Z,2.25
2018-07-15T12:50:57.159Z,1.92
2018-07-15T12:53:25.720Z,1.90
2018-07-15T12:55:55.341Z,1.90
2018-07-15T12:58:23.876Z,1.75
2018-07-15T13:00:54.984Z,2.05
2018-07-15T13:03:25.286Z,2.08
2018-07-15T13:05:55.461Z,1.92
2018-07-15T13:08:24.982Z,2.40
2018-07-15T13:10:55.034Z,2.25
2018-07-15T13:13:25.739Z,2.98
2018-07-15T13:15:54.062Z,1.50
2018-07-15T13:18:23.217Z,1.47
2018-07-15T13:20:54.931Z,1.47
2018-07-15T13:23:25.829Z,1.32
2018-07-15T13:25:54.498Z,1.77
2018-07-15T13:28:23.218Z,1.37
2018-07-15T13:30:52.036Z,1.32
2018-07-15T13:33:20.588Z,1.12
2018-07-15T13:35:49.337Z,1.10
2018-07-15T13:38:18.791Z,1.20
2018-07-15T13:40:47.594Z,2.22
2018-07-15T13:43:16.140Z,1.10
2018-07-15T13:45:44.668Z,1.40
2018-07-15T13:48:13.227Z,1.10
2018-07-15T13:50:41.844Z,4.05
2018-07-15T13:53:10.396Z,1.40
2018-07-15T13:55:39.109Z,1.10
2018-07-15T13:58:07.613Z,1.10
2018-07-15T14:00:36.228Z,2.02
2018-07-15T14:03:04.754Z,2.00
2018-07-15T14:05:33.305Z,1.27
2018-07-15T14:08:01.999Z,1.57
2018-07-15T14:10:30.586Z,1.35
2018-07-15T14:12:59.391Z,1.40
2018-07-15T14:15:28.257Z,1.27
2018-07-15T14:17:56.851Z,2.02
2018-07-15T14:20:25.584Z,1.80
2018-07-15T14:22:54.172Z,3.30
2018-07-15T14:25:23.488Z,1.02
2018-07-15T14:27:52.072Z,3.30
2018-07-15T14:30:20.815Z,1.10
2018-07-15T14:32:49.418Z,1.20
2018-07-15T14:35:18.183Z,0.98
2018-07-15T14:37:47.612Z,1.30
2018-07-15T14:40:16.310Z,2.40
2018-07-15T14:42:44.872Z,1.05
2018-07-15T14:45:13.548Z,2.08
2018-07-15T14:47:42.832Z,1.50
2018-07-15T14:50:11.713Z,1.10
2018-07-15T14:52:40.454Z,1.12
2018-07-15T14:55:09.039Z,2.87
2018-07-15T14:57:37.632Z,1.47
2018-07-15T15:00:06.237Z,0.90
2018-07-15T15:02:35.376Z,1.62
2018-07-15T15:05:03.989Z,2.27
2018-07-15T15:07:32.529Z,1.40
2018-07-15T15:10:01.412Z,0.90
2018-07-15T15:12:29.997Z,1.10
2018-07-15T15:14:58.587Z,2.25
2018-07-15T15:17:31.110Z,0.70
2018-07-15T15:19:59.843Z,2.10
2018-07-15T15:22:28.447Z,1.00
2018-07-15T15:24:57.005Z,0.78
2018-07-15T15:27:25.897Z,0.83
2018-07-15T15:29:56.938Z,0.85
2018-07-15T15:32:25.746Z,1.67
2018-07-15T15:34:54.418Z,0.80
2018-07-15T15:37:23.478Z,0.90
2018-07-15T15:39:52.620Z,0.90
2018-07-15T15:42:21.217Z,0.80
2018-07-15T15:44:50.010Z,2.15
2018-07-15T15:47:18.769Z,0.90
2018-07-15T15:49:48.942Z,0.88
2018-07-15T15:52:17.519Z,0.78
2018-07-15T15:54:47.344Z,1.10
2018-07-15T15:57:16.192Z,0.80
2018-07-15T15:59:45.610Z,1.92
2018-07-15T16:02:14.574Z,1.02
2018-07-15T16:04:43.347Z,1.15
2018-07-15T16:07:12.127Z,2.07
2018-07-15T16:09:40.761Z,1.00
2018-07-15T16:12:09.815Z,0.93
2018-07-15T16:14:38.908Z,0.85
2018-07-15T16:17:07.417Z,2.50
2018-07-15T16:19:36.043Z,1.15
2018-07-15T16:22:04.682Z,0.98
2018-07-15T16:24:33.384Z,1.15
2018-07-15T16:27:02.101Z,0.83
2018-07-15T16:29:33.429Z,1.20
2018-07-15T16:32:02.065Z,4.05
2018-07-15T16:34:30.693Z,1.92
2018-07-15T16:36:59.779Z,2.13
2018-07-15T16:39:28.390Z,0.80
2018-07-15T16:41:57.052Z,1.05
2018-07-15T16:44:25.668Z,0.72
2018-07-15T16:46:54.497Z,1.20
2018-07-15T16:49:23.266Z,0.60
2018-07-15T16:51:52.145Z,0.93
2018-07-15T16:54:21.421Z,0.90
2018-07-15T16:56:53.454Z,0.90
2018-07-15T16:59:22.412Z,1.60
2018-07-15T17:01:52.267Z,0.70
2018-07-15T17:04:21.503Z,1.12
2018-07-15T17:06:50.168Z,2.90
2018-07-15T17:09:18.747Z,0.80
2018-07-15T17:11:47.915Z,0.85
2018-07-15T17:14:17.212Z,1.00
2018-07-15T17:16:45.805Z,1.00
2018-07-15T17:19:15.441Z,0.90
2018-07-15T17:21:44.702Z,0.70
2018-07-15T17:24:16.568Z,1.35
2018-07-15T17:26:45.513Z,0.78
2018-07-15T17:29:14.167Z,3.15
2018-07-15T17:31:42.854Z,1.05
2018-07-15T17:34:11.595Z,1.22
2018-07-15T17:36:40.452Z,1.00
2018-07-15T17:39:08.790Z,0.80
2018-07-15T17:41:37.630Z,0.88
2018-07-15T17:44:06.475Z,1.10
2018-07-15T17:46:36.994Z,1.33
2018-07-15T17:49:05.604Z,1.25
2018-07-15T17:51:34.165Z,1.00
2018-07-15T17:54:02.768Z,1.00
2018-07-15T17:56:31.432Z,0.70
2018-07-15T17:58:59.952Z,0.95
2018-07-15T18:01:28.508Z,0.60
2018-07-15T18:03:57.096Z,0.78
2018-07-15T18:06:25.298Z,0.77
2018-07-15T18:08:54.423Z,0.75
2018-07-15T18:11:23.070Z,1.52
2018-07-15T18:13:53.627Z,0.95
2018-07-15T18:16:22.226Z,1.73
2018-07-15T18:18:50.879Z,1.25
2018-07-15T18:21:20.380Z,1.65
2018-07-15T18:23:49.085Z,0.90
2018-07-15T18:26:18.435Z,1.10
2018-07-15T18:28:47.618Z,2.72
2018-07-15T18:31:16.536Z,1.65
2018-07-15T18:33:45.436Z,1.05
2018-07-15T18:36:14.103Z,1.05
2018-07-15T18:38:42.840Z,0.90
2018-07-15T18:41:11.440Z,0.90
2018-07-15T18:43:41.682Z,0.95
2018-07-15T18:46:10.568Z,2.97
2018-07-15T18:48:39.420Z,1.92
2018-07-15T18:51:12.020Z,2.10
2018-07-15T18:53:42.579Z,1.05
2018-07-15T18:56:11.249Z,1.25
2018-07-15T18:58:40.003Z,1.42
2018-07-15T19:01:08.600Z,3.15
2018-07-15T19:03:37.194Z,1.62
2018-07-15T19:06:06.203Z,1.45
2018-07-15T19:08:34.854Z,0.98
2018-07-15T19:11:03.559Z,1.20
2018-07-15T19:13:32.225Z,1.22
2018-07-15T19:16:00.816Z,1.60
2018-07-15T19:18:29.464Z,1.50
2018-07-15T19:20:58.153Z,1.20
2018-07-15T19:23:26.732Z,1.27
2018-07-15T19:25:55.941Z,1.20
2018-07-15T19:28:24.552Z,1.60
2018-07-15T19:30:53.177Z,1.70
2018-07-15T19:33:21.727Z,1.02
2018-07-15T19:35:50.342Z,1.90
2018-07-15T19:38:19.696Z,3.17
2018-07-15T19:40:48.525Z,1.52
2018-07-15T19:43:17.749Z,1.50
2018-07-15T19:45:46.566Z,2.62
2018-07-15T19:48:15.295Z,1.47
2018-07-15T19:50:43.878Z,1.20
2018-07-15T19:53:12.452Z,1.27
2018-07-15T19:55:41.038Z,0.93
2018-07-15T19:58:09.558Z,1.17
2018-07-15T20:00:38.550Z,1.32
2018-07-15T20:03:07.130Z,2.12
2018-07-15T20:05:35.716Z,1.87
2018-07-15T20:08:04.235Z,2.65
2018-07-15T20:10:32.805Z,1.52
2018-07-15T20:13:02.183Z,2.50
2018-07-15T20:15:30.784Z,1.75
2018-07-15T20:17:59.473Z,1.27
2018-07-15T20:20:28.568Z,1.50
2018-07-15T20:22:57.728Z,3.30
2018-07-15T20:25:28.068Z,1.45
2018-07-15T20:27:56.865Z,1.85
2018-07-15T20:30:25.453Z,1.50
2018-07-15T20:32:54.596Z,1.50
2018-07-15T20:35:23.936Z,1.77
2018-07-15T20:37:52.485Z,1.98
2018-07-15T20:40:21.380Z,1.57
2018-07-15T20:42:49.972Z,1.95
2018-07-15T20:45:19.052Z,1.42
2018-07-15T20:47:48.054Z,1.37
2018-07-15T20:50:22.766Z,1.95
2018-07-15T20:52:51.323Z,1.45
2018-07-15T20:55:19.859Z,1.62
2018-07-15T20:57:48.459Z,1.45
2018-07-15T21:00:17.630Z,2.08
2018-07-15T21:02:46.702Z,1.60
2018-07-15T21:05:16.747Z,1.10
2018-07-15T21:07:46.188Z,2.05
2018-07-15T21:10:14.822Z,1.60
2018-07-15T21:12:44.009Z,1.65
2018-07-15T21:15:12.704Z,1.65
2018-07-15T21:17:41.533Z,1.45
2018-07-15T21:20:10.182Z,1.47
2018-07-15T21:22:39.794Z,1.50
2018-07-15T21:25:08.333Z,2.35
2018-07-15T21:27:36.936Z,1.52
2018-07-15T21:30:05.508Z,1.55
2018-07-15T21:32:34.118Z,2.47
2018-07-15T21:35:02.898Z,1.45
2018-07-15T21:37:31.781Z,1.50
2018-07-15T21:40:00.353Z,1.90
2018-07-15T21:42:28.868Z,1.60
2018-07-15T21:44:57.564Z,1.70
2018-07-15T21:47:27.035Z,1.60
2018-07-15T21:49:55.630Z,1.47
2018-07-15T21:52:24.662Z,2.75
2018-07-15T21:54:53.269Z,1.50
2018-07-15T21:57:21.841Z,1.90
2018-07-15T21:59:50.455Z,1.57
2018-07-15T22:02:19.363Z,2.37
2018-07-15T22:04:48.263Z,2.15
2018-07-15T22:07:28.188Z,1.57
2018-07-15T22:11:00.574Z,2.02
2018-07-15T22:13:29.880Z,1.87
2018-07-15T22:15:58.480Z,1.80
2018-07-15T22:18:27.665Z,2.08
2018-07-15T22:20:56.397Z,2.58
2018-07-15T22:23:24.991Z,1.80
2018-07-15T22:25:53.672Z,2.52
2018-07-15T22:28:22.304Z,1.82
2018-07-15T22:30:50.913Z,1.65
2018-07-15T22:33:19.654Z,1.80
2018-07-15T22:35:48.275Z,2.40
2018-07-15T22:38:17.057Z,2.35
2018-07-15T22:40:46.246Z,1.87
2018-07-15T22:43:15.346Z,1.95
2018-07-15T22:45:43.883Z,2.00
2018-07-15T22:48:12.446Z,2.98
2018-07-15T22:50:41.579Z,2.30
2018-07-15T22:53:10.100Z,2.27
2018-07-15T22:55:38.788Z,2.47
2018-07-15T22:58:07.543Z,2.42
2018-07-15T23:00:36.605Z,1.90
2018-07-15T23:03:04.857Z,1.67
2018-07-15T23:05:46.067Z,2.50
2018-07-15T23:08:15.066Z,1.77
2018-07-15T23:10:43.659Z,1.57
2018-07-15T23:13:12.831Z,2.47
2018-07-15T23:15:42.992Z,1.90
2018-07-15T23:18:11.988Z,2.15
2018-07-15T23:20:41.745Z,2.08
2018-07-15T23:23:11.529Z,2.90
2018-07-15T23:25:40.535Z,2.17
2018-07-15T23:28:10.396Z,3.17
2018-07-15T23:30:39.664Z,2.12
2018-07-15T23:33:09.120Z,1.77
2018-07-15T23:35:37.998Z,2.12
2018-07-15T23:38:06.561Z,3.47
2018-07-15T23:40:34.760Z,2.75
2018-07-15T23:43:03.991Z,2.10
2018-07-15T23:45:33.616Z,2.08
2018-07-15T23:48:02.249Z,2.47
2018-07-15T23:50:30.783Z,2.37
2018-07-15T23:52:59.380Z,1.62
2018-07-15T23:55:27.945Z,1.98
2018-07-15T23:57:56.644Z,1.80
